sensor_id;sensor_type;location;lat;lon;timestamp;temperature;humidity
37446;DHT22;23307;51.136;14.942;2023-01-08T00:01:31;8.40;99.90
37446;DHT22;23307;51.136;14.942;2023-01-08T00:03:56;8.40;99.90
37446;DHT22;23307;51.136;14.942;2023-01-08T00:06:22;8.40;99.90
37446;DHT22;23307;51.136;14.942;2023-01-08T00:08:48;8.40;99.90
37446;DHT22;23307;51.136;14.942;2023-01-08T00:11:14;8.40;99.90
37446;DHT22;23307;51.136;14.942;2023-01-08T00:13:39;8.30;99.90
37446;DHT22;23307;51.136;14.942;2023-01-08T00:16:07;8.30;99.90
37446;DHT22;23307;51.136;14.942;2023-01-08T00:18:33;8.30;99.90
37446;DHT22;23307;51.136;14.942;2023-01-08T00:20:59;8.30;99.90
37446;DHT22;23307;51.136;14.942;2023-01-08T00:23:24;8.30;99.90
37446;DHT22;23307;51.136;14.942;2023-01-08T00:25:50;8.20;99.90
37446;DHT22;23307;51.136;14.942;2023-01-08T00:28:16;8.20;99.90
37446;DHT22;23307;51.136;14.942;2023-01-08T00:30:41;8.20;99.90
37446;DHT22;23307;51.136;14.942;2023-01-08T00:33:08;8.20;99.90
37446;DHT22;23307;51.136;14.942;2023-01-08T00:35:33;8.20;99.90
37446;DHT22;23307;51.136;14.942;2023-01-08T00:37:59;8.20;99.90
37446;DHT22;23307;51.136;14.942;2023-01-08T00:40:25;8.20;99.90
37446;DHT22;23307;51.136;14.942;2023-01-08T00:42:50;8.20;99.90
37446;DHT22;23307;51.136;14.942;2023-01-08T00:45:17;8.20;99.90
37446;DHT22;23307;51.136;14.942;2023-01-08T00:47:42;8.10;99.90
37446;DHT22;23307;51.136;14.942;2023-01-08T00:50:08;8.20;99.90
37446;DHT22;23307;51.136;14.942;2023-01-08T00:52:34;8.20;99.90
37446;DHT22;23307;51.136;14.942;2023-01-08T00:54:59;8.20;99.90
37446;DHT22;23307;51.136;14.942;2023-01-08T00:57:25;8.20;99.90
37446;DHT22;23307;51.136;14.942;2023-01-08T00:59:50;8.10;99.90
37446;DHT22;23307;51.136;14.942;2023-01-08T01:02:16;8.10;99.90
37446;DHT22;23307;51.136;14.942;2023-01-08T01:04:41;8.10;99.90
37446;DHT22;23307;51.136;14.942;2023-01-08T01:07:06;8.10;99.90
37446;DHT22;23307;51.136;14.942;2023-01-08T01:09:32;8.10;99.90
37446;DHT22;23307;51.136;14.942;2023-01-08T01:11:57;8.10;99.90
37446;DHT22;23307;51.136;14.942;2023-01-08T01:14:23;8.00;99.90
37446;DHT22;23307;51.136;14.942;2023-01-08T01:16:49;8.10;99.90
37446;DHT22;23307;51.136;14.942;2023-01-08T01:19:15;8.10;99.90
37446;DHT22;23307;51.136;14.942;2023-01-08T01:21:42;8.10;99.90
37446;DHT22;23307;51.136;14.942;2023-01-08T01:24:10;8.10;99.90
37446;DHT22;23307;51.136;14.942;2023-01-08T01:26:35;8.10;99.90
37446;DHT22;23307;51.136;14.942;2023-01-08T01:29:01;8.10;99.90
37446;DHT22;23307;51.136;14.942;2023-01-08T01:31:29;8.10;99.90
37446;DHT22;23307;51.136;14.942;2023-01-08T01:33:55;8.10;99.90
37446;DHT22;23307;51.136;14.942;2023-01-08T01:36:21;8.10;99.90
37446;DHT22;23307;51.136;14.942;2023-01-08T01:38:52;8.10;99.90
37446;DHT22;23307;51.136;14.942;2023-01-08T01:41:29;8.20;99.90
37446;DHT22;23307;51.136;14.942;2023-01-08T01:43:57;8.20;99.90
37446;DHT22;23307;51.136;14.942;2023-01-08T01:46:37;8.10;99.90
37446;DHT22;23307;51.136;14.942;2023-01-08T01:51:33;8.10;99.90
37446;DHT22;23307;51.136;14.942;2023-01-08T01:54:01;8.10;99.90
37446;DHT22;23307;51.136;14.942;2023-01-08T01:56:28;8.10;99.90
37446;DHT22;23307;51.136;14.942;2023-01-08T01:58:55;8.10;99.90
37446;DHT22;23307;51.136;14.942;2023-01-08T02:01:22;8.10;99.90
37446;DHT22;23307;51.136;14.942;2023-01-08T02:03:47;8.10;99.90
37446;DHT22;23307;51.136;14.942;2023-01-08T02:09:07;8.00;99.90
37446;DHT22;23307;51.136;14.942;2023-01-08T02:11:49;8.00;99.90
37446;DHT22;23307;51.136;14.942;2023-01-08T02:14:52;8.00;99.90
37446;DHT22;23307;51.136;14.942;2023-01-08T02:20:16;8.00;99.90
37446;DHT22;23307;51.136;14.942;2023-01-08T02:23:04;8.00;99.90
37446;DHT22;23307;51.136;14.942;2023-01-08T02:25:38;8.10;99.90
37446;DHT22;23307;51.136;14.942;2023-01-08T02:28:09;8.10;99.90
37446;DHT22;23307;51.136;14.942;2023-01-08T02:30:36;8.10;99.90
37446;DHT22;23307;51.136;14.942;2023-01-08T02:33:01;8.10;99.90
37446;DHT22;23307;51.136;14.942;2023-01-08T02:35:39;8.20;99.90
37446;DHT22;23307;51.136;14.942;2023-01-08T02:38:09;8.20;99.90
37446;DHT22;23307;51.136;14.942;2023-01-08T02:41:12;8.10;99.90
37446;DHT22;23307;51.136;14.942;2023-01-08T02:43:45;8.10;99.90
37446;DHT22;23307;51.136;14.942;2023-01-08T02:46:18;8.10;99.90
37446;DHT22;23307;51.136;14.942;2023-01-08T02:49:03;8.10;99.90
37446;DHT22;23307;51.136;14.942;2023-01-08T02:51:40;8.00;99.90
37446;DHT22;23307;51.136;14.942;2023-01-08T02:54:10;8.00;99.90
37446;DHT22;23307;51.136;14.942;2023-01-08T02:56:40;8.00;99.90
37446;DHT22;23307;51.136;14.942;2023-01-08T02:59:09;8.00;99.90
37446;DHT22;23307;51.136;14.942;2023-01-08T03:01:36;8.00;99.90
37446;DHT22;23307;51.136;14.942;2023-01-08T03:04:05;7.90;99.90
37446;DHT22;23307;51.136;14.942;2023-01-08T03:06:32;7.90;99.90
37446;DHT22;23307;51.136;14.942;2023-01-08T03:08:58;7.90;99.90
37446;DHT22;23307;51.136;14.942;2023-01-08T03:11:30;7.90;99.90
37446;DHT22;23307;51.136;14.942;2023-01-08T03:14:42;7.80;99.90
37446;DHT22;23307;51.136;14.942;2023-01-08T03:19:23;7.80;99.90
37446;DHT22;23307;51.136;14.942;2023-01-08T03:21:51;7.80;99.90
37446;DHT22;23307;51.136;14.942;2023-01-08T03:24:22;7.80;99.90
37446;DHT22;23307;51.136;14.942;2023-01-08T03:26:51;7.70;99.90
37446;DHT22;23307;51.136;14.942;2023-01-08T03:29:19;7.70;99.90
37446;DHT22;23307;51.136;14.942;2023-01-08T03:31:47;7.70;99.90
37446;DHT22;23307;51.136;14.942;2023-01-08T03:34:14;7.70;99.90
37446;DHT22;23307;51.136;14.942;2023-01-08T03:36:43;7.70;99.90
37446;DHT22;23307;51.136;14.942;2023-01-08T03:39:15;7.70;99.90
37446;DHT22;23307;51.136;14.942;2023-01-08T03:41:41;7.70;99.90
37446;DHT22;23307;51.136;14.942;2023-01-08T03:44:07;7.70;99.90
37446;DHT22;23307;51.136;14.942;2023-01-08T03:46:36;7.60;99.90
37446;DHT22;23307;51.136;14.942;2023-01-08T03:49:03;7.60;99.90
37446;DHT22;23307;51.136;14.942;2023-01-08T03:51:38;7.60;99.90
37446;DHT22;23307;51.136;14.942;2023-01-08T03:54:04;7.60;99.90
37446;DHT22;23307;51.136;14.942;2023-01-08T03:56:30;7.60;99.90
37446;DHT22;23307;51.136;14.942;2023-01-08T03:58:55;7.60;99.90
37446;DHT22;23307;51.136;14.942;2023-01-08T04:01:20;7.50;99.90
37446;DHT22;23307;51.136;14.942;2023-01-08T04:03:46;7.50;99.90
37446;DHT22;23307;51.136;14.942;2023-01-08T04:06:11;7.50;99.90
37446;DHT22;23307;51.136;14.942;2023-01-08T04:08:37;7.50;99.90
37446;DHT22;23307;51.136;14.942;2023-01-08T04:11:02;7.50;99.90
37446;DHT22;23307;51.136;14.942;2023-01-08T04:13:28;7.40;99.90
37446;DHT22;23307;51.136;14.942;2023-01-08T04:15:53;7.40;99.90
37446;DHT22;23307;51.136;14.942;2023-01-08T04:18:19;7.40;99.90
37446;DHT22;23307;51.136;14.942;2023-01-08T04:20:45;7.40;99.90
37446;DHT22;23307;51.136;14.942;2023-01-08T04:23:11;7.40;99.90
37446;DHT22;23307;51.136;14.942;2023-01-08T04:25:37;7.40;99.90
37446;DHT22;23307;51.136;14.942;2023-01-08T04:28:03;7.40;99.90
37446;DHT22;23307;51.136;14.942;2023-01-08T04:30:28;7.40;99.90
37446;DHT22;23307;51.136;14.942;2023-01-08T04:32:54;7.40;99.90
37446;DHT22;23307;51.136;14.942;2023-01-08T04:35:19;7.40;99.90
37446;DHT22;23307;51.136;14.942;2023-01-08T04:37:45;7.40;99.90
37446;DHT22;23307;51.136;14.942;2023-01-08T04:40:10;7.40;99.90
37446;DHT22;23307;51.136;14.942;2023-01-08T04:42:36;7.40;99.90
37446;DHT22;23307;51.136;14.942;2023-01-08T04:45:01;7.40;99.90
37446;DHT22;23307;51.136;14.942;2023-01-08T04:47:27;7.40;99.90
37446;DHT22;23307;51.136;14.942;2023-01-08T04:49:52;7.50;99.90
37446;DHT22;23307;51.136;14.942;2023-01-08T04:52:17;7.40;99.90
37446;DHT22;23307;51.136;14.942;2023-01-08T04:54:43;7.40;99.90
37446;DHT22;23307;51.136;14.942;2023-01-08T04:57:08;7.40;99.90
37446;DHT22;23307;51.136;14.942;2023-01-08T04:59:34;7.40;99.90
37446;DHT22;23307;51.136;14.942;2023-01-08T05:02:00;7.40;99.90
37446;DHT22;23307;51.136;14.942;2023-01-08T05:04:25;7.40;99.90
37446;DHT22;23307;51.136;14.942;2023-01-08T05:06:51;7.40;99.90
37446;DHT22;23307;51.136;14.942;2023-01-08T05:09:16;7.40;99.90
37446;DHT22;23307;51.136;14.942;2023-01-08T05:11:42;7.40;99.90
37446;DHT22;23307;51.136;14.942;2023-01-08T05:14:08;7.40;99.90
37446;DHT22;23307;51.136;14.942;2023-01-08T05:16:33;7.40;99.90
37446;DHT22;23307;51.136;14.942;2023-01-08T05:18:58;7.40;99.90
37446;DHT22;23307;51.136;14.942;2023-01-08T05:21:24;7.30;99.90
37446;DHT22;23307;51.136;14.942;2023-01-08T05:23:50;7.30;99.90
37446;DHT22;23307;51.136;14.942;2023-01-08T05:26:16;7.30;99.90
37446;DHT22;23307;51.136;14.942;2023-01-08T05:28:41;7.30;99.90
37446;DHT22;23307;51.136;14.942;2023-01-08T05:31:07;7.40;99.90
37446;DHT22;23307;51.136;14.942;2023-01-08T05:33:33;7.40;99.90
37446;DHT22;23307;51.136;14.942;2023-01-08T05:35:58;7.40;99.90
37446;DHT22;23307;51.136;14.942;2023-01-08T05:38:24;7.40;99.90
37446;DHT22;23307;51.136;14.942;2023-01-08T05:40:52;7.40;99.90
37446;DHT22;23307;51.136;14.942;2023-01-08T05:43:18;7.40;99.90
37446;DHT22;23307;51.136;14.942;2023-01-08T05:45:43;7.40;99.90
37446;DHT22;23307;51.136;14.942;2023-01-08T05:48:09;7.40;99.90
37446;DHT22;23307;51.136;14.942;2023-01-08T05:50:34;7.40;99.90
37446;DHT22;23307;51.136;14.942;2023-01-08T05:53:00;7.40;99.90
37446;DHT22;23307;51.136;14.942;2023-01-08T05:55:26;7.40;99.90
37446;DHT22;23307;51.136;14.942;2023-01-08T05:57:51;7.30;99.90
37446;DHT22;23307;51.136;14.942;2023-01-08T06:00:17;7.30;99.90
37446;DHT22;23307;51.136;14.942;2023-01-08T06:02:46;7.40;99.90
37446;DHT22;23307;51.136;14.942;2023-01-08T06:05:12;7.40;99.90
37446;DHT22;23307;51.136;14.942;2023-01-08T06:07:37;7.40;99.90
37446;DHT22;23307;51.136;14.942;2023-01-08T06:10:03;7.40;99.90
37446;DHT22;23307;51.136;14.942;2023-01-08T06:12:28;7.40;99.90
37446;DHT22;23307;51.136;14.942;2023-01-08T06:14:54;7.40;99.90
37446;DHT22;23307;51.136;14.942;2023-01-08T06:17:19;7.40;99.90
37446;DHT22;23307;51.136;14.942;2023-01-08T06:19:45;7.40;99.90
37446;DHT22;23307;51.136;14.942;2023-01-08T06:22:11;7.40;99.90
37446;DHT22;23307;51.136;14.942;2023-01-08T06:24:37;7.40;99.90
37446;DHT22;23307;51.136;14.942;2023-01-08T06:27:02;7.40;99.90
37446;DHT22;23307;51.136;14.942;2023-01-08T06:29:28;7.40;99.90
37446;DHT22;23307;51.136;14.942;2023-01-08T06:31:53;7.40;99.90
37446;DHT22;23307;51.136;14.942;2023-01-08T06:34:18;7.30;99.90
37446;DHT22;23307;51.136;14.942;2023-01-08T06:36:44;7.30;99.90
37446;DHT22;23307;51.136;14.942;2023-01-08T06:39:09;7.30;99.90
37446;DHT22;23307;51.136;14.942;2023-01-08T06:41:35;7.20;99.90
37446;DHT22;23307;51.136;14.942;2023-01-08T06:44:00;7.20;99.90
37446;DHT22;23307;51.136;14.942;2023-01-08T06:46:26;7.20;99.90
37446;DHT22;23307;51.136;14.942;2023-01-08T06:48:52;7.20;99.90
37446;DHT22;23307;51.136;14.942;2023-01-08T06:51:17;7.20;99.90
37446;DHT22;23307;51.136;14.942;2023-01-08T06:53:42;7.20;99.90
37446;DHT22;23307;51.136;14.942;2023-01-08T06:56:08;7.20;99.90
37446;DHT22;23307;51.136;14.942;2023-01-08T06:58:36;7.20;99.90
37446;DHT22;23307;51.136;14.942;2023-01-08T07:01:01;7.20;99.90
37446;DHT22;23307;51.136;14.942;2023-01-08T07:03:27;7.10;99.90
37446;DHT22;23307;51.136;14.942;2023-01-08T07:05:52;7.20;99.90
37446;DHT22;23307;51.136;14.942;2023-01-08T07:08:18;7.10;99.90
37446;DHT22;23307;51.136;14.942;2023-01-08T07:10:44;7.10;99.90
37446;DHT22;23307;51.136;14.942;2023-01-08T07:13:10;7.20;99.90
37446;DHT22;23307;51.136;14.942;2023-01-08T07:15:37;7.10;99.90
37446;DHT22;23307;51.136;14.942;2023-01-08T07:18:06;7.20;99.90
37446;DHT22;23307;51.136;14.942;2023-01-08T07:20:33;7.20;99.90
37446;DHT22;23307;51.136;14.942;2023-01-08T07:23:08;7.20;99.90
37446;DHT22;23307;51.136;14.942;2023-01-08T07:25:33;7.20;99.90
37446;DHT22;23307;51.136;14.942;2023-01-08T07:27:59;7.20;99.90
37446;DHT22;23307;51.136;14.942;2023-01-08T07:30:25;7.20;99.90
37446;DHT22;23307;51.136;14.942;2023-01-08T07:32:50;7.20;99.90
37446;DHT22;23307;51.136;14.942;2023-01-08T07:35:16;7.30;99.90
37446;DHT22;23307;51.136;14.942;2023-01-08T07:37:41;7.30;99.90
37446;DHT22;23307;51.136;14.942;2023-01-08T07:40:11;7.30;99.90
37446;DHT22;23307;51.136;14.942;2023-01-08T07:42:37;7.30;99.90
37446;DHT22;23307;51.136;14.942;2023-01-08T07:45:03;7.30;99.90
37446;DHT22;23307;51.136;14.942;2023-01-08T07:47:29;7.30;99.90
37446;DHT22;23307;51.136;14.942;2023-01-08T07:49:54;7.30;99.90
37446;DHT22;23307;51.136;14.942;2023-01-08T07:52:20;7.30;99.90
37446;DHT22;23307;51.136;14.942;2023-01-08T07:54:46;7.40;99.90
37446;DHT22;23307;51.136;14.942;2023-01-08T07:57:11;7.40;99.90
37446;DHT22;23307;51.136;14.942;2023-01-08T07:59:37;7.40;99.90
37446;DHT22;23307;51.136;14.942;2023-01-08T08:02:03;7.50;99.90
37446;DHT22;23307;51.136;14.942;2023-01-08T08:04:29;7.40;99.90
37446;DHT22;23307;51.136;14.942;2023-01-08T08:06:54;7.50;99.90
37446;DHT22;23307;51.136;14.942;2023-01-08T08:09:19;7.50;99.90
37446;DHT22;23307;51.136;14.942;2023-01-08T08:11:45;7.50;99.90
37446;DHT22;23307;51.136;14.942;2023-01-08T08:14:10;7.50;99.90
37446;DHT22;23307;51.136;14.942;2023-01-08T08:16:36;7.50;99.90
37446;DHT22;23307;51.136;14.942;2023-01-08T08:19:02;7.60;99.90
37446;DHT22;23307;51.136;14.942;2023-01-08T08:21:27;7.60;99.90
37446;DHT22;23307;51.136;14.942;2023-01-08T08:23:54;7.60;99.90
37446;DHT22;23307;51.136;14.942;2023-01-08T08:26:20;7.60;99.90
37446;DHT22;23307;51.136;14.942;2023-01-08T08:28:45;7.60;99.90
37446;DHT22;23307;51.136;14.942;2023-01-08T08:31:11;7.70;99.90
37446;DHT22;23307;51.136;14.942;2023-01-08T08:33:36;7.70;99.90
37446;DHT22;23307;51.136;14.942;2023-01-08T08:36:02;7.70;99.90
37446;DHT22;23307;51.136;14.942;2023-01-08T08:38:28;7.80;99.90
37446;DHT22;23307;51.136;14.942;2023-01-08T08:40:53;7.80;99.90
37446;DHT22;23307;51.136;14.942;2023-01-08T08:43:19;7.90;99.90
37446;DHT22;23307;51.136;14.942;2023-01-08T08:45:44;7.90;99.90
37446;DHT22;23307;51.136;14.942;2023-01-08T08:48:10;8.00;99.90
37446;DHT22;23307;51.136;14.942;2023-01-08T08:50:36;8.10;99.90
37446;DHT22;23307;51.136;14.942;2023-01-08T08:53:04;8.10;99.90
37446;DHT22;23307;51.136;14.942;2023-01-08T08:55:30;8.20;99.90
37446;DHT22;23307;51.136;14.942;2023-01-08T08:58:05;8.30;99.90
37446;DHT22;23307;51.136;14.942;2023-01-08T09:00:31;8.30;99.90
37446;DHT22;23307;51.136;14.942;2023-01-08T09:02:57;8.40;99.90
37446;DHT22;23307;51.136;14.942;2023-01-08T09:05:23;8.50;99.90
37446;DHT22;23307;51.136;14.942;2023-01-08T09:07:48;8.50;99.90
37446;DHT22;23307;51.136;14.942;2023-01-08T09:10:14;8.60;99.90
37446;DHT22;23307;51.136;14.942;2023-01-08T09:12:39;8.60;99.90
37446;DHT22;23307;51.136;14.942;2023-01-08T09:15:05;8.60;99.90
37446;DHT22;23307;51.136;14.942;2023-01-08T09:17:31;8.60;99.90
37446;DHT22;23307;51.136;14.942;2023-01-08T09:19:56;8.70;99.90
37446;DHT22;23307;51.136;14.942;2023-01-08T09:22:22;8.70;99.90
37446;DHT22;23307;51.136;14.942;2023-01-08T09:24:47;8.70;99.90
37446;DHT22;23307;51.136;14.942;2023-01-08T09:27:13;8.70;99.90
37446;DHT22;23307;51.136;14.942;2023-01-08T09:29:39;8.70;99.90
37446;DHT22;23307;51.136;14.942;2023-01-08T09:32:05;8.70;99.90
37446;DHT22;23307;51.136;14.942;2023-01-08T09:34:31;8.70;99.90
37446;DHT22;23307;51.136;14.942;2023-01-08T09:36:57;8.80;99.90
37446;DHT22;23307;51.136;14.942;2023-01-08T09:39:22;8.80;99.90
37446;DHT22;23307;51.136;14.942;2023-01-08T09:41:48;8.90;99.90
37446;DHT22;23307;51.136;14.942;2023-01-08T09:44:19;9.00;99.90
37446;DHT22;23307;51.136;14.942;2023-01-08T09:46:46;9.10;99.90
37446;DHT22;23307;51.136;14.942;2023-01-08T09:49:19;9.10;99.90
37446;DHT22;23307;51.136;14.942;2023-01-08T09:51:45;9.00;99.90
37446;DHT22;23307;51.136;14.942;2023-01-08T09:54:14;9.10;99.90
37446;DHT22;23307;51.136;14.942;2023-01-08T09:56:41;9.00;99.90
37446;DHT22;23307;51.136;14.942;2023-01-08T09:59:11;9.00;99.90
37446;DHT22;23307;51.136;14.942;2023-01-08T10:01:39;9.00;99.90
37446;DHT22;23307;51.136;14.942;2023-01-08T10:04:21;9.00;99.90
37446;DHT22;23307;51.136;14.942;2023-01-08T10:07:00;9.00;99.90
37446;DHT22;23307;51.136;14.942;2023-01-08T10:09:28;8.90;99.90
37446;DHT22;23307;51.136;14.942;2023-01-08T10:11:58;8.90;99.90
37446;DHT22;23307;51.136;14.942;2023-01-08T10:14:36;8.80;99.90
37446;DHT22;23307;51.136;14.942;2023-01-08T10:19:49;8.70;99.90
37446;DHT22;23307;51.136;14.942;2023-01-08T10:22:17;8.80;99.90
37446;DHT22;23307;51.136;14.942;2023-01-08T10:24:44;8.80;99.90
37446;DHT22;23307;51.136;14.942;2023-01-08T10:27:22;8.70;99.90
37446;DHT22;23307;51.136;14.942;2023-01-08T10:29:51;8.70;99.90
37446;DHT22;23307;51.136;14.942;2023-01-08T10:32:26;8.70;99.90
37446;DHT22;23307;51.136;14.942;2023-01-08T10:34:55;8.70;99.90
37446;DHT22;23307;51.136;14.942;2023-01-08T10:37:23;8.70;99.90
37446;DHT22;23307;51.136;14.942;2023-01-08T10:39:51;8.70;99.90
37446;DHT22;23307;51.136;14.942;2023-01-08T10:42:18;8.70;99.90
37446;DHT22;23307;51.136;14.942;2023-01-08T10:44:53;8.70;99.90
37446;DHT22;23307;51.136;14.942;2023-01-08T10:47:21;8.80;99.90
37446;DHT22;23307;51.136;14.942;2023-01-08T10:49:47;8.80;99.90
37446;DHT22;23307;51.136;14.942;2023-01-08T10:52:31;8.80;99.90
37446;DHT22;23307;51.136;14.942;2023-01-08T10:55:20;8.80;99.90
37446;DHT22;23307;51.136;14.942;2023-01-08T10:58:26;8.80;99.90
37446;DHT22;23307;51.136;14.942;2023-01-08T11:00:44;8.90;99.90
37446;DHT22;23307;51.136;14.942;2023-01-08T11:03:26;8.90;99.90
37446;DHT22;23307;51.136;14.942;2023-01-08T11:05:53;8.90;99.90
37446;DHT22;23307;51.136;14.942;2023-01-08T11:08:20;8.90;99.90
37446;DHT22;23307;51.136;14.942;2023-01-08T11:10:54;8.90;99.90
37446;DHT22;23307;51.136;14.942;2023-01-08T11:13:20;8.90;99.90
37446;DHT22;23307;51.136;14.942;2023-01-08T11:16:05;8.80;99.90
37446;DHT22;23307;51.136;14.942;2023-01-08T11:18:47;8.90;99.90
37446;DHT22;23307;51.136;14.942;2023-01-08T11:21:25;8.90;99.90
37446;DHT22;23307;51.136;14.942;2023-01-08T11:24:14;8.90;99.90
37446;DHT22;23307;51.136;14.942;2023-01-08T11:26:45;8.90;99.90
37446;DHT22;23307;51.136;14.942;2023-01-08T11:29:16;8.90;99.90
37446;DHT22;23307;51.136;14.942;2023-01-08T11:31:53;8.90;99.90
37446;DHT22;23307;51.136;14.942;2023-01-08T11:37:09;8.90;99.90
37446;DHT22;23307;51.136;14.942;2023-01-08T11:39:36;8.90;99.90
37446;DHT22;23307;51.136;14.942;2023-01-08T11:48:05;8.90;99.90
37446;DHT22;23307;51.136;14.942;2023-01-08T11:53:32;8.80;99.90
37446;DHT22;23307;51.136;14.942;2023-01-08T12:07:43;8.60;99.90
37446;DHT22;23307;51.136;14.942;2023-01-08T12:10:29;8.60;99.90
37446;DHT22;23307;51.136;14.942;2023-01-08T12:21:20;8.50;99.90
37446;DHT22;23307;51.136;14.942;2023-01-08T12:24:10;8.50;99.90
37446;DHT22;23307;51.136;14.942;2023-01-08T12:37:28;8.30;99.90
37446;DHT22;23307;51.136;14.942;2023-01-08T12:40:21;8.20;99.90
37446;DHT22;23307;51.136;14.942;2023-01-08T12:42:47;8.20;99.90
37446;DHT22;23307;51.136;14.942;2023-01-08T12:45:17;8.20;99.90
37446;DHT22;23307;51.136;14.942;2023-01-08T12:47:49;8.20;99.90
37446;DHT22;23307;51.136;14.942;2023-01-08T12:53:03;8.20;99.90
37446;DHT22;23307;51.136;14.942;2023-01-08T12:58:32;8.20;99.90
37446;DHT22;23307;51.136;14.942;2023-01-08T13:01:15;8.10;99.90
37446;DHT22;23307;51.136;14.942;2023-01-08T13:03:42;8.10;99.90
37446;DHT22;23307;51.136;14.942;2023-01-08T13:06:14;8.10;99.90
37446;DHT22;23307;51.136;14.942;2023-01-08T13:08:52;8.10;99.90
37446;DHT22;23307;51.136;14.942;2023-01-08T13:11:27;8.20;99.90
37446;DHT22;23307;51.136;14.942;2023-01-08T13:14:09;8.20;99.90
37446;DHT22;23307;51.136;14.942;2023-01-08T13:16:37;8.30;99.90
37446;DHT22;23307;51.136;14.942;2023-01-08T13:19:04;8.40;99.90
37446;DHT22;23307;51.136;14.942;2023-01-08T13:24:03;8.50;99.90
37446;DHT22;23307;51.136;14.942;2023-01-08T13:26:31;8.50;99.90
37446;DHT22;23307;51.136;14.942;2023-01-08T13:29:24;8.40;99.90
37446;DHT22;23307;51.136;14.942;2023-01-08T13:31:50;8.40;99.90
37446;DHT22;23307;51.136;14.942;2023-01-08T13:34:22;8.40;99.90
37446;DHT22;23307;51.136;14.942;2023-01-08T13:36:58;8.30;99.90
37446;DHT22;23307;51.136;14.942;2023-01-08T13:39:32;8.30;99.90
37446;DHT22;23307;51.136;14.942;2023-01-08T13:44:39;8.20;99.90
37446;DHT22;23307;51.136;14.942;2023-01-08T13:49:48;8.00;99.90
37446;DHT22;23307;51.136;14.942;2023-01-08T13:52:56;8.00;99.90
37446;DHT22;23307;51.136;14.942;2023-01-08T13:55:31;8.00;99.90
37446;DHT22;23307;51.136;14.942;2023-01-08T13:57:59;7.90;99.90
37446;DHT22;23307;51.136;14.942;2023-01-08T14:00:34;7.90;99.90
37446;DHT22;23307;51.136;14.942;2023-01-08T14:03:03;7.90;99.90
37446;DHT22;23307;51.136;14.942;2023-01-08T14:05:30;7.80;99.90
37446;DHT22;23307;51.136;14.942;2023-01-08T14:07:59;7.90;99.90
37446;DHT22;23307;51.136;14.942;2023-01-08T14:10:26;7.90;99.90
37446;DHT22;23307;51.136;14.942;2023-01-08T14:12:52;7.90;99.90
37446;DHT22;23307;51.136;14.942;2023-01-08T14:15:25;7.90;99.90
37446;DHT22;23307;51.136;14.942;2023-01-08T14:17:53;7.80;99.90
37446;DHT22;23307;51.136;14.942;2023-01-08T14:20:29;7.80;99.90
37446;DHT22;23307;51.136;14.942;2023-01-08T14:22:55;7.80;99.90
37446;DHT22;23307;51.136;14.942;2023-01-08T14:25:22;7.80;99.90
37446;DHT22;23307;51.136;14.942;2023-01-08T14:28:17;7.80;99.90
37446;DHT22;23307;51.136;14.942;2023-01-08T14:30:50;7.70;99.90
37446;DHT22;23307;51.136;14.942;2023-01-08T14:33:19;7.70;99.90
37446;DHT22;23307;51.136;14.942;2023-01-08T14:35:46;7.70;99.90
37446;DHT22;23307;51.136;14.942;2023-01-08T14:38:12;7.70;99.90
37446;DHT22;23307;51.136;14.942;2023-01-08T14:40:42;7.70;99.90
37446;DHT22;23307;51.136;14.942;2023-01-08T14:43:12;7.70;99.90
37446;DHT22;23307;51.136;14.942;2023-01-08T14:45:45;7.70;99.90
37446;DHT22;23307;51.136;14.942;2023-01-08T14:48:20;7.70;99.90
37446;DHT22;23307;51.136;14.942;2023-01-08T14:50:59;7.70;99.90
37446;DHT22;23307;51.136;14.942;2023-01-08T14:53:34;7.60;99.90
37446;DHT22;23307;51.136;14.942;2023-01-08T14:56:01;7.60;99.90
37446;DHT22;23307;51.136;14.942;2023-01-08T14:58:34;7.60;99.90
37446;DHT22;23307;51.136;14.942;2023-01-08T15:01:06;7.60;99.90
37446;DHT22;23307;51.136;14.942;2023-01-08T15:05:58;7.70;99.90
37446;DHT22;23307;51.136;14.942;2023-01-08T15:08:43;7.70;99.90
37446;DHT22;23307;51.136;14.942;2023-01-08T15:13:46;7.70;99.90
37446;DHT22;23307;51.136;14.942;2023-01-08T15:16:31;7.60;99.90
37446;DHT22;23307;51.136;14.942;2023-01-08T15:19:11;7.60;99.90
37446;DHT22;23307;51.136;14.942;2023-01-08T15:21:38;7.60;99.90
37446;DHT22;23307;51.136;14.942;2023-01-08T15:24:27;7.60;99.90
37446;DHT22;23307;51.136;14.942;2023-01-08T15:26:53;7.60;99.90
37446;DHT22;23307;51.136;14.942;2023-01-08T15:29:27;7.60;99.90
37446;DHT22;23307;51.136;14.942;2023-01-08T15:32:08;7.60;99.90
37446;DHT22;23307;51.136;14.942;2023-01-08T15:34:34;7.60;99.90
37446;DHT22;23307;51.136;14.942;2023-01-08T15:36:59;7.60;99.90
37446;DHT22;23307;51.136;14.942;2023-01-08T15:39:25;7.60;99.90
37446;DHT22;23307;51.136;14.942;2023-01-08T15:41:50;7.60;99.90
37446;DHT22;23307;51.136;14.942;2023-01-08T15:44:34;7.60;99.90
37446;DHT22;23307;51.136;14.942;2023-01-08T15:47:00;7.60;99.90
37446;DHT22;23307;51.136;14.942;2023-01-08T15:49:26;7.60;99.90
37446;DHT22;23307;51.136;14.942;2023-01-08T15:51:51;7.70;99.90
37446;DHT22;23307;51.136;14.942;2023-01-08T15:54:18;7.70;99.90
37446;DHT22;23307;51.136;14.942;2023-01-08T15:56:45;7.70;99.90
37446;DHT22;23307;51.136;14.942;2023-01-08T15:59:11;7.70;99.90
37446;DHT22;23307;51.136;14.942;2023-01-08T16:01:37;7.70;99.90
37446;DHT22;23307;51.136;14.942;2023-01-08T16:04:03;7.70;99.90
37446;DHT22;23307;51.136;14.942;2023-01-08T16:06:28;7.80;99.90
37446;DHT22;23307;51.136;14.942;2023-01-08T16:08:54;7.70;99.90
37446;DHT22;23307;51.136;14.942;2023-01-08T16:11:24;7.70;99.90
37446;DHT22;23307;51.136;14.942;2023-01-08T16:13:49;7.70;99.90
37446;DHT22;23307;51.136;14.942;2023-01-08T16:16:15;7.70;99.90
37446;DHT22;23307;51.136;14.942;2023-01-08T16:18:41;7.70;99.90
37446;DHT22;23307;51.136;14.942;2023-01-08T16:21:09;7.70;99.90
37446;DHT22;23307;51.136;14.942;2023-01-08T16:23:36;7.70;99.90
37446;DHT22;23307;51.136;14.942;2023-01-08T16:26:06;7.70;99.90
37446;DHT22;23307;51.136;14.942;2023-01-08T16:28:31;7.70;99.90
37446;DHT22;23307;51.136;14.942;2023-01-08T16:30:57;7.60;99.90
37446;DHT22;23307;51.136;14.942;2023-01-08T16:33:23;7.70;99.90
37446;DHT22;23307;51.136;14.942;2023-01-08T16:35:56;7.60;99.90
37446;DHT22;23307;51.136;14.942;2023-01-08T16:38:22;7.60;99.90
37446;DHT22;23307;51.136;14.942;2023-01-08T16:40:50;7.60;99.90
37446;DHT22;23307;51.136;14.942;2023-01-08T16:43:15;7.60;99.90
37446;DHT22;23307;51.136;14.942;2023-01-08T16:45:45;7.60;99.90
37446;DHT22;23307;51.136;14.942;2023-01-08T16:48:11;7.60;99.90
37446;DHT22;23307;51.136;14.942;2023-01-08T16:50:38;7.60;99.90
37446;DHT22;23307;51.136;14.942;2023-01-08T16:53:04;7.60;99.90
37446;DHT22;23307;51.136;14.942;2023-01-08T16:55:29;7.50;99.90